Time;durP1;ratioP1;P1;durP2;ratioP2;P2;SDS_P1;SDS_P2;PMS_P1;PMS_P2;Temp;Humidity;BMP_temperature;BMP_pressure;BME280_temperature;BME280_humidity;BME280_pressure;Samples;Min_cycle;Max_cycle;Signal;HPM_P1;HPM_P2
2022/05/28 00:00:54;;;;;;;3.38;1.23;;;;;;;8.09;67.04;98808.00;4190300;28;20056;-72
2022/05/28 00:02:55;;;;;;;4.50;1.52;;;;;;;8.02;67.47;98816.06;4193345;28;20083;-72
2022/05/28 00:04:55;;;;;;;4.82;1.55;;;;;;;7.99;66.77;98814.03;4202716;27;20056;-72
2022/05/28 00:06:55;;;;;;;5.75;1.40;;;;;;;7.96;67.51;98810.03;4203285;27;20040;-72
2022/05/28 00:08:59;;;;;;;6.10;1.63;;;;;;;7.96;67.39;98809.22;4201971;27;20036;-72
2022/05/28 00:10:59;;;;;;;2.80;1.77;;;;;;;7.92;68.05;98805.56;4203457;27;20048;-72
2022/05/28 00:12:59;;;;;;;4.75;1.38;;;;;;;7.99;67.85;98808.50;4196039;27;20079;-72
2022/05/28 00:15:00;;;;;;;5.15;1.35;;;;;;;7.92;67.76;98806.38;4196549;28;20056;-72
2022/05/28 00:17:00;;;;;;;5.32;1.88;;;;;;;7.92;67.84;98800.84;4201750;27;20249;-72
2022/05/28 00:19:00;;;;;;;7.70;1.70;;;;;;;7.91;68.17;98812.22;4200903;27;20076;-72
2022/05/28 00:21:02;;;;;;;3.00;1.23;;;;;;;7.87;67.98;98804.69;4198458;27;20040;-72
2022/05/28 00:23:02;;;;;;;4.30;1.30;;;;;;;7.85;68.42;98798.69;4191367;28;20464;-72
2022/05/28 00:25:03;;;;;;;4.82;1.42;;;;;;;7.82;68.14;98796.66;4203024;27;20232;-72
2022/05/28 00:27:04;;;;;;;4.57;1.40;;;;;;;7.80;68.11;98798.97;4202238;27;20503;-72
2022/05/28 00:29:06;;;;;;;5.85;1.60;;;;;;;7.78;68.58;98795.78;4202600;27;20439;-72
2022/05/28 00:31:07;;;;;;;4.88;1.63;;;;;;;7.76;68.38;98800.81;4196956;27;20040;-72
2022/05/28 00:33:07;;;;;;;6.00;1.40;;;;;;;7.72;68.96;98799.13;4195573;28;20048;-72
2022/05/28 00:35:11;;;;;;;4.28;1.45;;;;;;;7.66;69.22;98800.53;4197568;27;20075;-72
2022/05/28 00:37:12;;;;;;;4.72;1.65;;;;;;;7.64;69.68;98794.56;4188277;28;20900;-71
2022/05/28 00:39:12;;;;;;;6.93;2.00;;;;;;;7.59;69.13;98796.41;4187171;28;20075;-71
2022/05/28 00:41:13;;;;;;;3.58;1.33;;;;;;;7.58;68.83;98800.31;4187599;28;20036;-71
2022/05/28 00:43:13;;;;;;;3.65;1.60;;;;;;;7.55;68.96;98798.28;4186913;28;20045;-71
2022/05/28 00:45:14;;;;;;;3.67;1.35;;;;;;;7.52;69.63;98795.41;4187702;28;20098;-72
2022/05/28 00:47:16;;;;;;;2.67;1.40;;;;;;;7.51;69.50;98799.31;4187047;28;20056;-72
2022/05/28 00:49:23;;;;;;;3.73;1.40;;;;;;;7.48;69.27;98792.56;4186767;28;20036;-72
2022/05/28 00:51:32;;;;;;;4.60;1.30;;;;;;;7.45;69.81;98787.78;4188625;28;20068;-72
2022/05/28 00:53:34;;;;;;;4.18;1.58;;;;;;;7.41;69.76;98792.34;4199019;27;20044;-71
2022/05/28 00:55:35;;;;;;;6.30;1.63;;;;;;;7.39;69.94;98797.41;4186972;28;20037;-71
2022/05/28 00:57:38;;;;;;;4.13;1.30;;;;;;;7.33;70.77;98791.34;4187529;28;20500;-71
2022/05/28 00:59:39;;;;;;;4.03;1.40;;;;;;;7.32;71.13;98797.22;4198397;27;20040;-71
2022/05/28 01:01:41;;;;;;;6.43;1.88;;;;;;;7.19;71.94;98792.88;4187143;28;20527;-71
2022/05/28 01:03:58;;;;;;;4.70;1.45;;;;;;;7.13;72.76;98794.28;4187169;28;20048;-71
2022/05/28 01:06:14;;;;;;;4.25;1.33;;;;;;;7.16;73.16;98790.81;4187135;28;20128;-71
2022/05/28 01:08:40;;;;;;;6.97;1.63;;;;;;;7.13;73.77;98788.78;4186822;28;20037;-72
2022/05/28 01:11:08;;;;;;;5.20;1.20;;;;;;;7.12;73.96;98776.97;4187215;28;20142;-72
2022/05/28 01:13:20;;;;;;;3.50;1.20;;;;;;;7.11;74.08;98782.81;4187366;28;20040;-72
2022/05/28 01:15:26;;;;;;;6.53;1.50;;;;;;;7.12;73.49;98779.72;4187081;28;20048;-72
2022/05/28 01:17:45;;;;;;;6.10;1.40;;;;;;;7.13;73.98;98786.03;4193426;28;20255;-72
2022/05/28 01:20:09;;;;;;;3.60;1.30;;;;;;;7.15;72.97;98781.78;4198568;27;20075;-71
2022/05/28 01:22:27;;;;;;;8.65;2.75;;;;;;;7.13;73.42;98773.06;4186423;28;20086;-72
2022/05/28 01:24:44;;;;;;;5.57;1.17;;;;;;;7.14;74.45;98766.41;4186778;28;20071;-71
2022/05/28 01:27:09;;;;;;;4.05;1.48;;;;;;;7.14;73.76;98763.66;4186515;28;20074;-71
2022/05/28 01:29:12;;;;;;;3.70;1.25;;;;;;;7.21;74.53;98771.34;4191832;28;20051;-71
2022/05/28 01:31:14;;;;;;;6.82;1.58;;;;;;;7.23;74.74;98767.06;4201189;27;20101;-71
2022/05/28 01:33:16;;;;;;;4.78;1.50;;;;;;;7.30;74.54;98759.03;4201857;27;20477;-71
2022/05/28 01:35:19;;;;;;;4.95;2.17;;;;;;;7.34;74.01;98764.63;4202336;27;20361;-71
2022/05/28 01:37:21;;;;;;;;;;;;;;;7.38;74.31;98757.28;4200156;27;20064;-71
2022/05/28 01:39:22;;;;;;;10.13;2.05;;;;;;;7.39;74.32;98763.59;4185868;28;19916;-72
2022/05/28 01:41:25;;;;;;;6.47;1.60;;;;;;;7.41;74.36;98753.03;4186271;28;20044;-72
2022/05/28 01:43:27;;;;;;;5.30;1.60;;;;;;;7.44;74.28;98746.81;4186685;28;20321;-72
2022/05/28 01:45:30;;;;;;;4.93;2.47;;;;;;;7.47;73.66;98746.13;4194841;28;20098;-72
2022/05/28 01:47:34;;;;;;;4.43;1.55;;;;;;;7.49;74.05;98744.59;4200470;27;20134;-72
2022/05/28 01:49:35;;;;;;;3.08;1.52;;;;;;;7.51;74.46;98747.81;4201020;27;20049;-72
2022/05/28 01:51:41;;;;;;;6.32;1.80;;;;;;;7.58;73.89;98744.44;4187425;28;20086;-72
2022/05/28 01:56:04;;;;;;;7.22;1.80;;;;;;;7.59;73.47;98744.09;4186142;28;20101;-72
2022/05/28 01:58:05;;;;;;;3.95;1.60;;;;;;;7.56;73.85;98744.81;4186285;28;20360;-72
2022/05/28 02:00:06;;;;;;;3.92;1.60;;;;;;;7.50;74.14;98745.41;4186130;28;20036;-72
2022/05/28 02:02:10;;;;;;;3.38;1.60;;;;;;;7.51;74.49;98733.25;4184872;28;20028;-71
2022/05/28 02:04:12;;;;;;;4.97;1.58;;;;;;;7.52;74.09;98737.59;4186674;28;20155;-71
2022/05/28 02:06:12;;;;;;;6.13;1.90;;;;;;;7.49;74.39;98743.81;4200957;27;20023;-71
2022/05/28 02:08:13;;;;;;;9.85;2.13;;;;;;;7.45;74.53;98743.72;4200691;27;20531;-71
2022/05/28 02:10:18;;;;;;;8.15;2.00;;;;;;;7.46;74.97;98739.81;4199676;27;20040;-71
2022/05/28 02:12:30;;;;;;;6.10;2.25;;;;;;;7.48;74.41;98747.72;4186938;28;20464;-72
2022/05/28 02:14:57;;;;;;;5.30;1.65;;;;;;;7.57;74.70;98738.16;4185648;28;20366;-72
2022/05/28 02:17:17;;;;;;;5.40;1.55;;;;;;;7.65;74.09;98738.34;4183850;28;20319;-72
2022/05/28 02:19:28;;;;;;;5.15;1.48;;;;;;;7.68;73.82;98737.63;4192724;28;20556;-71
2022/05/28 02:21:42;;;;;;;4.05;1.58;;;;;;;7.70;73.61;98725.13;4202312;27;20504;-71
2022/05/28 02:23:52;;;;;;;6.95;1.65;;;;;;;7.79;73.84;98738.72;4191002;27;20138;-72
2022/05/28 02:26:09;;;;;;;5.43;1.60;;;;;;;7.83;73.54;98729.41;4190464;28;20406;-71
2022/05/28 02:28:11;;;;;;;4.45;2.00;;;;;;;7.86;73.82;98733.38;4194475;28;20091;-71
2022/05/28 02:30:12;;;;;;;;;;;;;;;7.87;73.79;98735.00;4186414;28;20024;-71
2022/05/28 02:32:19;;;;;;;5.55;1.25;;;;;;;7.95;73.16;98730.50;4186090;28;20358;-71
2022/05/28 02:34:20;;;;;;;7.18;3.13;;;;;;;7.90;72.97;98723.28;4195302;27;20082;-71
2022/05/28 02:36:20;;;;;;;3.75;1.45;;;;;;;7.86;72.81;98722.38;4195902;28;20378;-71
2022/05/28 02:38:20;;;;;;;9.13;1.80;;;;;;;7.89;73.10;98722.47;4185693;28;20052;-71
2022/05/28 02:40:21;;;;;;;3.08;1.35;;;;;;;7.87;73.66;98707.47;4185496;28;20076;-71
2022/05/28 02:42:21;;;;;;;8.05;2.65;;;;;;;7.82;73.15;98703.00;4185956;28;20043;-72
2022/05/28 02:44:23;;;;;;;5.40;1.48;;;;;;;7.79;73.55;98711.19;4196153;27;20097;-72
2022/05/28 02:46:23;;;;;;;7.10;2.17;;;;;;;7.76;73.18;98706.38;4186293;28;20116;-72
2022/05/28 02:48:24;;;;;;;7.55;1.83;;;;;;;7.72;73.87;98705.50;4184880;28;20060;-72
2022/05/28 02:50:26;;;;;;;5.40;1.33;;;;;;;7.68;73.90;98705.38;4186136;28;20044;-71
2022/05/28 02:52:26;;;;;;;7.97;2.30;;;;;;;7.72;74.08;98699.97;4196966;27;20543;-71
2022/05/28 02:54:27;;;;;;;7.32;1.85;;;;;;;7.76;73.68;98693.41;4200761;27;20093;-71
2022/05/28 02:56:28;;;;;;;5.05;1.63;;;;;;;7.74;73.55;98686.66;4200251;27;20028;-71
2022/05/28 02:58:29;;;;;;;6.47;1.55;;;;;;;7.74;73.76;98692.16;4186926;28;20714;-71
2022/05/28 03:00:30;;;;;;;4.22;1.48;;;;;;;7.71;73.63;98685.41;4189775;28;20032;-71
2022/05/28 03:02:30;;;;;;;4.40;1.50;;;;;;;7.69;73.89;98692.41;4189116;28;20045;-71
2022/05/28 03:04:31;;;;;;;6.75;1.42;;;;;;;7.70;73.82;98694.84;4188793;28;20082;-72
2022/05/28 03:06:32;;;;;;;9.43;1.70;;;;;;;7.75;73.90;98694.56;4188200;28;20090;-72
2022/05/28 03:08:32;;;;;;;6.82;1.75;;;;;;;7.73;73.75;98694.13;4187647;28;20040;-72
2022/05/28 03:10:34;;;;;;;5.35;1.63;;;;;;;7.72;73.92;98686.22;4189039;28;20092;-72
2022/05/28 03:12:34;;;;;;;4.63;1.70;;;;;;;7.75;73.88;98688.25;4189065;28;20667;-72
2022/05/28 03:14:36;;;;;;;5.85;1.85;;;;;;;7.72;74.19;98688.97;4189294;28;20079;-72
2022/05/28 03:16:36;;;;;;;9.88;2.45;;;;;;;7.74;73.89;98687.44;4188749;28;20048;-72
2022/05/28 03:18:37;;;;;;;6.28;2.30;;;;;;;7.71;74.00;98685.41;4188243;28;20438;-72
2022/05/28 03:20:38;;;;;;;7.53;2.08;;;;;;;7.69;74.21;98684.94;4189314;28;20055;-72
2022/05/28 03:22:39;;;;;;;4.70;1.77;;;;;;;7.62;74.35;98684.78;4188441;28;20048;-72
2022/05/28 03:24:39;;;;;;;5.60;1.55;;;;;;;7.56;74.96;98686.19;4188905;28;20381;-72
2022/05/28 03:26:39;;;;;;;3.20;1.40;;;;;;;7.56;75.02;98686.19;4188704;28;20033;-72
2022/05/28 03:28:40;;;;;;;10.95;2.05;;;;;;;7.52;75.19;98688.81;4200844;27;20131;-72
2022/05/28 03:30:41;;;;;;;4.78;1.50;;;;;;;7.53;75.08;98684.94;4201610;27;20150;-72
2022/05/28 03:32:41;;;;;;;8.93;2.30;;;;;;;7.53;75.50;98692.38;4188540;28;20135;-72
2022/05/28 03:34:41;;;;;;;4.85;1.95;;;;;;;7.56;75.21;98686.19;4189130;28;20068;-72
2022/05/28 03:36:42;;;;;;;7.78;1.80;;;;;;;7.60;75.16;98682.34;4188464;28;20320;-72
2022/05/28 03:38:42;;;;;;;4.43;1.52;;;;;;;7.66;75.40;98685.66;4187644;28;20049;-71
2022/05/28 03:40:43;;;;;;;3.67;1.42;;;;;;;7.74;75.32;98689.41;4188973;28;20826;-72
2022/05/28 03:42:43;;;;;;;5.75;1.80;;;;;;;7.76;74.41;98685.13;4196358;28;20046;-72
2022/05/28 03:44:43;;;;;;;5.57;1.75;;;;;;;7.80;74.66;98691.53;4198937;27;20044;-72
2022/05/28 03:46:43;;;;;;;5.57;1.70;;;;;;;7.83;74.41;98690.81;4188811;28;20121;-71
2022/05/28 03:48:44;;;;;;;2.95;1.40;;;;;;;7.82;75.04;98688.44;4187545;28;20044;-71
2022/05/28 03:50:44;;;;;;;4.10;1.55;;;;;;;7.94;75.04;98695.81;4197974;27;20125;-71
2022/05/28 03:52:44;;;;;;;9.93;1.98;;;;;;;7.95;74.82;98700.19;4188138;28;20448;-71
2022/05/28 03:54:45;;;;;;;8.77;1.65;;;;;;;8.03;74.70;98694.50;4188734;28;20520;-71
2022/05/28 03:56:47;;;;;;;4.25;1.77;;;;;;;8.07;74.43;98700.06;4188319;28;20052;-71
2022/05/28 03:58:49;;;;;;;5.85;2.03;;;;;;;8.15;74.19;98693.59;4187541;28;20040;-71
2022/05/28 04:00:49;;;;;;;4.97;2.22;;;;;;;8.19;74.19;98688.94;4188696;28;20423;-71
2022/05/28 04:02:50;;;;;;;3.25;1.63;;;;;;;8.32;73.66;98698.72;4194704;28;20549;-71
2022/05/28 04:04:50;;;;;;;4.60;1.70;;;;;;;8.31;74.23;98693.56;4203061;27;20064;-71
2022/05/28 04:06:51;;;;;;;7.80;1.60;;;;;;;8.34;73.65;98692.84;4204066;27;20142;-71
2022/05/28 04:08:51;;;;;;;3.28;1.40;;;;;;;8.47;72.80;98699.09;4202093;27;20050;-71
2022/05/28 04:10:52;;;;;;;6.05;1.45;;;;;;;8.47;72.71;98697.13;4189663;28;20355;-71
2022/05/28 04:12:52;;;;;;;6.55;1.83;;;;;;;8.48;73.02;98693.22;4191756;27;20623;-71
2022/05/28 04:14:52;;;;;;;5.30;1.40;;;;;;;8.44;72.65;98693.16;4188516;28;20080;-71
2022/05/28 04:16:53;;;;;;;5.38;1.67;;;;;;;8.47;73.25;98704.63;4186889;28;20476;-71
2022/05/28 04:18:53;;;;;;;7.30;1.80;;;;;;;8.51;73.05;98698.00;4186990;28;20048;-71
2022/05/28 04:20:53;;;;;;;5.32;1.77;;;;;;;8.52;72.79;98702.34;4187736;28;20379;-71
2022/05/28 04:22:53;;;;;;;4.15;1.60;;;;;;;8.62;72.26;98701.03;4187857;28;20039;-71
2022/05/28 04:24:54;;;;;;;7.50;1.77;;;;;;;8.68;72.29;98702.31;4187741;28;20040;-71
2022/05/28 04:26:54;;;;;;;6.68;1.75;;;;;;;8.77;71.67;98707.63;4201847;27;20040;-71
2022/05/28 04:28:54;;;;;;;5.88;1.92;;;;;;;8.80;71.71;98693.16;4194519;28;20543;-71
2022/05/28 04:30:55;;;;;;;8.65;2.15;;;;;;;8.81;71.98;98695.53;4187604;28;20036;-71
2022/05/28 04:32:56;;;;;;;5.00;1.63;;;;;;;8.94;71.61;98696.22;4203108;27;20456;-71
2022/05/28 04:34:56;;;;;;;8.70;2.20;;;;;;;9.02;71.56;98703.50;4203019;27;20048;-71
2022/05/28 04:36:56;;;;;;;7.97;2.10;;;;;;;9.13;71.73;98692.66;4188511;28;20431;-71
2022/05/28 04:38:57;;;;;;;4.28;1.80;;;;;;;9.26;70.75;98697.66;4196734;27;20048;-70
2022/05/28 04:40:57;;;;;;;8.23;1.95;;;;;;;9.35;70.50;98699.41;4202167;27;20468;-70
2022/05/28 04:42:57;;;;;;;5.47;1.52;;;;;;;9.48;70.17;98696.13;4202526;27;20105;-70
2022/05/28 04:44:58;;;;;;;6.53;2.17;;;;;;;9.47;70.22;98707.53;4190644;28;20047;-70
2022/05/28 04:46:58;;;;;;;4.93;1.88;;;;;;;9.41;69.62;98698.75;4186113;28;20192;-71
2022/05/28 04:48:58;;;;;;;6.70;1.65;;;;;;;9.42;70.41;98705.06;4186488;28;20469;-71
2022/05/28 04:50:59;;;;;;;4.68;1.58;;;;;;;9.31;70.18;98715.91;4192999;28;20075;-71
2022/05/28 04:52:59;;;;;;;4.13;1.60;;;;;;;9.21;71.47;98714.53;4196171;27;20045;-70
2022/05/28 04:55:00;;;;;;;5.60;2.10;;;;;;;9.17;71.40;98713.66;4185369;28;20052;-70
2022/05/28 04:57:00;;;;;;;5.35;1.88;;;;;;;9.26;71.51;98707.91;4185308;28;20288;-71
2022/05/28 04:59:01;;;;;;;5.05;2.40;;;;;;;9.34;70.49;98722.66;4186132;28;20078;-71
2022/05/28 05:01:01;;;;;;;5.53;1.90;;;;;;;9.26;70.95;98722.50;4186843;28;20424;-71
2022/05/28 05:03:01;;;;;;;7.75;1.80;;;;;;;9.33;70.97;98712.78;4186109;28;20048;-71
2022/05/28 05:05:03;;;;;;;4.95;1.77;;;;;;;9.27;71.73;98717.81;4185126;28;20041;-71
2022/05/28 05:07:03;;;;;;;5.68;1.63;;;;;;;9.35;71.09;98714.03;4186502;28;20055;-70
2022/05/28 05:09:04;;;;;;;7.38;1.67;;;;;;;9.34;71.36;98717.13;4185494;28;20041;-70
2022/05/28 05:11:04;;;;;;;5.65;1.70;;;;;;;9.31;71.30;98704.06;4185973;28;20106;-71
2022/05/28 05:13:05;;;;;;;5.30;1.70;;;;;;;9.22;71.98;98715.31;4185785;28;20584;-71
2022/05/28 05:15:06;;;;;;;6.35;2.00;;;;;;;9.29;72.19;98716.28;4187252;28;20072;-70
2022/05/28 05:17:06;;;;;;;4.28;1.90;;;;;;;9.23;72.10;98714.97;4187507;28;20481;-71
2022/05/28 05:19:07;;;;;;;6.28;1.65;;;;;;;9.34;71.54;98722.66;4185413;28;20082;-70
2022/05/28 05:21:11;;;;;;;6.32;2.17;;;;;;;9.37;71.43;98721.94;4188863;27;20045;-70
2022/05/28 05:23:12;;;;;;;5.85;2.05;;;;;;;9.45;71.09;98713.44;4188467;28;20048;-70
2022/05/28 05:25:14;;;;;;;6.47;2.13;;;;;;;9.55;71.63;98714.81;4186500;28;20479;-70
2022/05/28 05:27:14;;;;;;;6.68;1.90;;;;;;;9.75;71.90;98718.31;4187695;28;20506;-71
2022/05/28 05:29:14;;;;;;;2.85;1.77;;;;;;;9.69;71.73;98722.56;4185770;28;20428;-71
2022/05/28 05:31:15;;;;;;;4.80;2.45;;;;;;;9.56;71.98;98731.00;4185533;28;20507;-71
2022/05/28 05:33:16;;;;;;;10.05;3.45;;;;;;;9.54;73.18;98733.34;4185404;28;20064;-71
2022/05/28 05:35:16;;;;;;;6.43;2.10;;;;;;;9.30;75.63;98736.41;4185648;28;20376;-71
2022/05/28 05:37:16;;;;;;;7.30;2.33;;;;;;;9.29;76.66;98741.13;4185243;28;20037;-71
2022/05/28 05:39:17;;;;;;;4.50;1.60;;;;;;;9.19;77.11;98738.16;4186631;28;20050;-70
2022/05/28 05:41:17;;;;;;;9.73;2.03;;;;;;;9.04;77.55;98736.25;4185710;28;20282;-70
2022/05/28 05:43:19;;;;;;;4.25;2.03;;;;;;;8.98;78.62;98744.00;4185574;28;20048;-70
2022/05/28 05:45:19;;;;;;;3.70;1.67;;;;;;;8.96;79.36;98754.59;4185300;28;20201;-70
2022/05/28 05:47:20;;;;;;;13.48;2.13;;;;;;;8.93;80.05;98758.88;4185029;28;20098;-71
2022/05/28 05:49:21;;;;;;;5.53;1.70;;;;;;;8.85;81.27;98743.31;4184782;28;20120;-71
2022/05/28 05:51:21;;;;;;;4.72;1.70;;;;;;;8.94;81.48;98754.16;4185458;28;20476;-71
2022/05/28 05:53:22;;;;;;;4.97;2.03;;;;;;;8.96;81.40;98749.88;4187896;27;20048;-71
2022/05/28 05:55:23;;;;;;;4.93;2.00;;;;;;;8.88;81.20;98748.13;4185486;28;20049;-71
2022/05/28 05:57:23;;;;;;;5.00;1.98;;;;;;;8.95;81.24;98742.78;4189129;28;20179;-71
2022/05/28 05:59:23;;;;;;;6.28;2.22;;;;;;;9.01;81.84;98744.06;4187732;28;20047;-71
2022/05/28 06:01:25;;;;;;;10.13;2.55;;;;;;;9.09;80.97;98746.97;4185596;28;20036;-71
2022/05/28 06:03:25;;;;;;;7.68;2.63;;;;;;;9.07;80.46;98733.53;4185428;28;20044;-71
2022/05/28 06:05:26;;;;;;;6.00;2.10;;;;;;;9.18;80.08;98742.84;4184376;28;20033;-71
2022/05/28 06:07:26;;;;;;;5.97;2.50;;;;;;;9.34;79.78;98745.53;4185483;28;20297;-71
2022/05/28 06:09:27;;;;;;;5.10;2.10;;;;;;;9.37;76.99;98760.59;4184613;28;20522;-71
2022/05/28 06:11:27;;;;;;;9.70;2.30;;;;;;;9.49;76.73;98746.63;4186101;28;20428;-71
2022/05/28 06:13:27;;;;;;;7.00;2.08;;;;;;;9.36;76.31;98751.53;4184427;28;20333;-71
2022/05/28 06:15:28;;;;;;;6.88;2.25;;;;;;;9.34;77.30;98748.31;4185171;28;20430;-71
2022/05/28 06:17:28;;;;;;;8.55;2.42;;;;;;;9.39;76.61;98745.25;4185343;28;20048;-71
2022/05/28 06:19:28;;;;;;;9.80;3.20;;;;;;;9.62;74.69;98731.50;4184296;28;20045;-71
2022/05/28 06:21:29;;;;;;;6.13;2.60;;;;;;;9.69;74.57;98734.41;4183825;27;20111;-71
2022/05/28 06:23:30;;;;;;;6.45;2.60;;;;;;;9.83;75.03;98740.19;4127825;28;20734;-71
2022/05/28 06:25:30;;;;;;;7.15;2.65;;;;;;;9.84;74.66;98739.03;4184932;28;20067;-71
2022/05/28 06:27:32;;;;;;;4.18;2.60;;;;;;;9.82;73.69;98743.31;4185157;28;20032;-71
2022/05/28 06:29:32;;;;;;;5.57;2.70;;;;;;;9.80;73.38;98735.41;4185710;28;20116;-71
2022/05/28 06:31:33;;;;;;;4.97;2.38;;;;;;;9.88;73.34;98736.34;4183824;28;20072;-71
2022/05/28 06:33:35;;;;;;;5.82;2.60;;;;;;;9.89;71.21;98735.16;4187526;28;20074;-71
2022/05/28 06:35:35;;;;;;;3.38;2.15;;;;;;;10.06;72.52;98731.13;4191040;28;20139;-71
2022/05/28 06:37:36;;;;;;;4.18;1.67;;;;;;;10.26;73.30;98721.66;4189672;28;20095;-71
2022/05/28 06:39:37;;;;;;;5.20;1.80;;;;;;;10.08;69.52;98735.09;4189052;28;20040;-71
2022/05/28 06:41:37;;;;;;;6.50;2.17;;;;;;;10.09;70.01;98730.38;4188736;28;20523;-71
2022/05/28 06:43:38;;;;;;;6.45;1.90;;;;;;;9.77;69.02;98733.38;4189160;28;20041;-72
2022/05/28 06:45:38;;;;;;;6.75;2.05;;;;;;;9.84;68.79;98727.97;4188943;28;20695;-72
2022/05/28 06:47:39;;;;;;;6.88;2.30;;;;;;;9.81;69.38;98725.94;4188267;28;20496;-71
2022/05/28 06:49:39;;;;;;;7.15;1.73;;;;;;;9.98;69.23;98732.97;4193955;27;20037;-72
2022/05/28 06:51:40;;;;;;;4.38;1.95;;;;;;;10.12;69.82;98724.13;4189224;28;20472;-72
2022/05/28 06:53:46;;;;;;;5.65;2.13;;;;;;;10.24;68.48;98725.94;4195034;28;20189;-72
2022/05/28 06:55:47;;;;;;;11.38;2.50;;;;;;;10.17;69.04;98739.59;4204789;27;20514;-72
2022/05/28 06:57:48;;;;;;;6.50;2.00;;;;;;;10.08;70.34;98737.88;4204609;27;20445;-72
2022/05/28 06:59:48;;;;;;;3.17;1.80;;;;;;;10.05;70.64;98741.38;4188070;28;20111;-71
2022/05/28 07:01:48;;;;;;;7.50;3.33;;;;;;;10.01;70.39;98746.06;4188863;28;20146;-72
2022/05/28 07:03:49;;;;;;;8.35;2.70;;;;;;;10.08;71.36;98737.88;4194426;28;20043;-72
2022/05/28 07:05:49;;;;;;;8.27;2.97;;;;;;;10.03;71.69;98743.72;4193009;27;20147;-72
2022/05/28 07:07:49;;;;;;;8.98;2.35;;;;;;;10.07;71.25;98750.09;4196375;28;20140;-72
2022/05/28 07:09:50;;;;;;;6.07;2.05;;;;;;;10.05;69.82;98743.34;4191100;28;20423;-72
2022/05/28 07:11:50;;;;;;;5.40;2.38;;;;;;;10.06;70.19;98756.00;4203260;27;20097;-71
2022/05/28 07:13:50;;;;;;;5.22;2.53;;;;;;;10.06;69.95;98748.50;4203708;27;20062;-72
2022/05/28 07:15:51;;;;;;;3.42;2.15;;;;;;;9.98;69.63;98749.53;4192017;27;20460;-72
2022/05/28 07:17:51;;;;;;;5.10;2.20;;;;;;;9.94;70.14;98756.19;4191353;28;20468;-71
2022/05/28 07:19:52;;;;;;;4.13;2.15;;;;;;;9.93;70.05;98752.63;4188181;28;20043;-71
2022/05/28 07:21:52;;;;;;;6.50;2.75;;;;;;;9.95;70.26;98747.53;4188897;28;20463;-72
2022/05/28 07:23:54;;;;;;;6.43;2.47;;;;;;;10.07;70.84;98755.63;4188578;28;20090;-72
2022/05/28 07:26:03;;;;;;;4.07;2.05;;;;;;;10.14;69.32;98754.97;4190755;28;20033;-71
2022/05/28 07:28:24;;;;;;;4.00;1.65;;;;;;;10.31;67.67;98756.47;4186662;28;20044;-72
2022/05/28 07:30:25;;;;;;;2.63;1.90;;;;;;;10.56;66.66;98754.09;4188189;28;20044;-72
2022/05/28 07:32:29;;;;;;;3.65;1.75;;;;;;;10.73;66.47;98748.06;4188568;28;20044;-72
2022/05/28 07:34:29;;;;;;;2.08;1.52;;;;;;;10.91;63.23;98754.63;4193099;27;20060;-72
2022/05/28 07:36:31;;;;;;;4.65;1.80;;;;;;;10.99;63.21;98761.09;4202858;28;20035;-72
2022/05/28 07:38:33;;;;;;;4.78;1.52;;;;;;;11.29;64.06;98750.03;4202472;27;20119;-71
2022/05/28 07:40:34;;;;;;;2.03;1.37;;;;;;;11.12;60.32;98756.94;4192889;28;20052;-71
2022/05/28 07:42:34;;;;;;;3.47;1.33;;;;;;;11.07;59.90;98751.69;4188293;28;20328;-72
2022/05/28 07:44:35;;;;;;;4.90;1.67;;;;;;;10.85;59.24;98747.06;4187802;28;20053;-71
2022/05/28 07:46:35;;;;;;;4.82;1.50;;;;;;;10.91;60.04;98753.84;4188753;28;20079;-72
2022/05/28 07:48:36;;;;;;;2.45;1.13;;;;;;;10.87;59.46;98762.09;4187752;28;20049;-72
2022/05/28 07:50:37;;;;;;;2.08;1.40;;;;;;;11.14;59.28;98760.13;4201791;27;20032;-72
2022/05/28 07:52:38;;;;;;;2.70;1.42;;;;;;;11.29;59.20;98754.78;4188471;28;20139;-72
2022/05/28 07:54:38;;;;;;;4.35;1.52;;;;;;;11.22;59.02;98747.97;4190251;28;20071;-71
2022/05/28 07:56:39;;;;;;;4.32;1.65;;;;;;;11.43;58.80;98741.09;4188283;28;20084;-72
2022/05/28 07:58:39;;;;;;;3.25;1.50;;;;;;;11.66;59.54;98757.59;4196888;27;20036;-72
2022/05/28 08:00:44;;;;;;;5.85;2.45;;;;;;;11.72;59.04;98764.41;4188596;28;20360;-72
2022/05/28 08:02:44;;;;;;;3.20;1.30;;;;;;;11.74;58.60;98750.94;4188124;28;20040;-72
2022/05/28 08:04:45;;;;;;;4.40;1.52;;;;;;;11.53;59.41;98748.75;4186700;28;20643;-72
2022/05/28 08:06:45;;;;;;;2.80;1.52;;;;;;;11.51;60.47;98751.91;4188390;28;20097;-72
2022/05/28 08:08:47;;;;;;;1.77;1.30;;;;;;;11.42;59.27;98758.88;4194335;27;20412;-72
2022/05/28 08:10:48;;;;;;;5.05;1.52;;;;;;;11.66;60.46;98747.28;4188199;28;20040;-72
2022/05/28 08:12:48;;;;;;;3.90;1.70;;;;;;;11.58;59.67;98776.09;4202669;27;20109;-72
2022/05/28 08:14:49;;;;;;;1.75;1.42;;;;;;;11.52;58.36;98764.56;4202969;27;20328;-72
2022/05/28 08:16:49;;;;;;;5.40;1.40;;;;;;;11.37;57.29;98768.34;4187785;28;20050;-72
2022/05/28 08:18:50;;;;;;;3.15;1.75;;;;;;;11.03;56.86;98764.72;4187138;27;20465;-72
2022/05/28 08:23:11;;;;;;;2.05;1.17;;;;;;;11.23;55.78;98768.13;4191276;28;20101;-72
2022/05/28 08:25:12;;;;;;;6.95;1.50;;;;;;;11.38;55.78;98766.38;4192789;28;20047;-72
2022/05/28 08:27:12;;;;;;;11.70;1.45;;;;;;;11.24;56.94;98769.72;4189225;28;20045;-72
2022/05/28 08:29:12;;;;;;;8.85;1.55;;;;;;;11.62;56.70;98770.63;4200217;27;20079;-72
2022/05/28 08:31:13;;;;;;;5.88;1.40;;;;;;;11.97;55.18;98753.59;4194586;27;20496;-72
2022/05/28 08:33:16;;;;;;;4.70;1.38;;;;;;;12.11;52.78;98770.41;4190310;28;20098;-72
2022/05/28 08:35:17;;;;;;;5.95;1.50;;;;;;;12.18;52.29;98761.34;4191129;27;20553;-71
2022/05/28 08:37:17;;;;;;;6.40;1.60;;;;;;;12.07;50.44;98772.31;4186626;28;20064;-72
2022/05/28 08:39:17;;;;;;;6.28;2.17;;;;;;;12.11;51.07;98750.97;4185959;28;20049;-72
2022/05/28 08:41:42;;;;;;;5.10;2.85;;;;;;;12.29;49.69;98759.47;4195371;28;20047;-72
2022/05/28 08:43:54;;;;;;;4.47;1.45;;;;;;;12.34;50.63;98756.34;4192131;27;20048;-72
2022/05/28 08:45:54;;;;;;;4.50;1.10;;;;;;;12.43;50.21;98754.06;4194200;28;20097;-72
2022/05/28 08:47:55;;;;;;;1.75;1.17;;;;;;;12.55;49.62;98761.28;4202882;27;20051;-73
2022/05/28 08:49:55;;;;;;;2.92;1.23;;;;;;;12.79;52.29;98766.22;4200959;27;20388;-72
2022/05/28 08:52:09;;;;;;;2.72;1.27;;;;;;;12.74;49.23;98757.44;4203160;27;20047;-73
2022/05/28 08:54:35;;;;;;;1.60;1.00;;;;;;;12.69;48.50;98788.34;4201459;28;20830;-72
2022/05/28 08:56:37;;;;;;;1.42;1.00;;;;;;;12.31;49.11;98770.97;4186319;28;20098;-72
2022/05/28 08:58:40;;;;;;;3.53;1.20;;;;;;;12.23;48.35;98763.75;4187817;28;20053;-72
2022/05/28 09:00:40;;;;;;;;;;;;;;;12.38;48.48;98773.81;4187588;28;20806;-72
2022/05/28 09:02:51;;;;;;;3.23;1.20;;;;;;;12.71;47.38;98767.34;4188778;28;19920;-72
2022/05/28 09:04:55;;;;;;;5.28;1.30;;;;;;;12.59;46.19;98774.00;4202639;27;20278;-72
2022/05/28 09:06:59;;;;;;;3.83;1.00;;;;;;;12.69;48.21;98766.94;4192763;28;20046;-72
2022/05/28 09:08:59;;;;;;;4.88;1.23;;;;;;;12.58;47.16;98764.09;4196282;27;20192;-72
2022/05/28 09:11:06;;;;;;;2.90;1.58;;;;;;;12.29;47.03;98774.13;4187245;28;20586;-72
2022/05/28 09:13:22;;;;;;;3.42;1.10;;;;;;;12.62;47.31;98798.22;4189185;28;20056;-72
2022/05/28 09:15:23;;;;;;;4.38;1.25;;;;;;;12.42;46.43;98773.88;4186859;28;20094;-72
2022/05/28 09:17:31;;;;;;;4.03;1.10;;;;;;;12.73;47.93;98759.44;4186891;28;20049;-72
2022/05/28 09:19:40;;;;;;;4.30;1.05;;;;;;;12.76;47.84;98761.44;4198201;28;20109;-72
2022/05/28 09:21:40;;;;;;;5.90;1.10;;;;;;;12.71;45.90;98794.31;4201762;27;20048;-72
2022/05/28 09:23:50;;;;;;;4.22;0.90;;;;;;;12.46;47.72;98775.47;4201326;27;20533;-72
2022/05/28 09:25:51;;;;;;;2.33;1.08;;;;;;;12.24;49.16;98782.78;4186667;28;20057;-73
2022/05/28 09:28:01;;;;;;;2.08;1.17;;;;;;;12.25;50.08;98791.94;4186836;28;20048;-73
2022/05/28 09:30:23;;;;;;;2.33;0.95;;;;;;;12.22;50.23;98778.81;4186191;28;20055;-72
2022/05/28 09:32:42;;;;;;;9.40;1.38;;;;;;;12.20;50.46;98773.66;4186898;28;20037;-72
2022/05/28 09:35:01;;;;;;;2.75;1.40;;;;;;;12.58;51.59;98786.28;4187203;28;20045;-72
2022/05/28 09:37:16;;;;;;;2.83;1.05;;;;;;;12.96;51.59;98777.84;4186885;28;20127;-72
2022/05/28 09:39:37;;;;;;;2.38;1.08;;;;;;;12.94;49.60;98776.25;4185818;28;20052;-72
2022/05/28 09:42:32;;;;;;;4.43;1.13;;;;;;;13.05;49.24;98781.88;4186704;28;20086;-72
2022/05/28 09:44:38;;;;;;;2.95;1.05;;;;;;;13.10;48.50;98777.94;4183837;28;20044;-72
2022/05/28 09:46:41;;;;;;;4.38;1.25;;;;;;;13.36;48.52;98782.47;4192637;27;20085;-72
2022/05/28 09:48:42;;;;;;;4.32;1.52;;;;;;;13.37;48.47;98781.28;4191337;28;20512;-72